Gurn Spring, New York
Current Conditions -  °F | °C
As of 12:17 AM on Thursday 27 Nov 2014 (Local Time) from KGFL Reporting Station
Light Snow Light Snow  
Wind Chill: 20°   Ceiling: 2200
Heat Index: 30°   Visibility: 2mi
Dew Point: 26°   Wind: 14mph
Humidity: 85%   Direction: 360°N
Pressure: 29.9"   Gusts: NA
Location:  43.1979°N, 73.6839°W
Report Text: KGFL 270517Z AUTO 36012KT 2SM -SN BR OVC022 M01/M03 A2990 RMK AO2 P0000 T10111033
Loading
Personal Weather Stations






























Interactive Weather Map New forecast layout! Learn more

10-Day Weather Forecast

Advertisements
Track Severe Weather on mobile